Terminal Aerodrome Forecast
Issued by NWS Jacksonville, FL

Home | Current Version | Previous Version | Text Only | Print | Product List | Glossary On
Versions: 1 2 3 4 5 6 7 8 9 10 11 12 13 14 15 16 17 18 19 20
000
FTUS42 KJAX 061721
TAFJAX
TAF
KJAX 061721Z 0618/0718 05014G22KT P6SM VCSH SCT020 BKN035
     FM062300 03009KT P6SM SCT040 BKN250
     FM070600 33005KT P6SM SCT100 SCT250
     FM071400 32013KT P6SM SCT250=

USA.gov is the U.S. government's official web portal to all federal, state and local government web resources and services.